Winnetka, California
Current Conditions -  °F | °C
As of 9:51 PM on Tuesday 27 Jan 2015 (Local Time) from KVNY Reporting Station
Clear Clear  
Wind Chill: 58°   Ceiling: Unl
Heat Index: 58°   Visibility: 10mi
Dew Point: 47°   Wind: 3mph
Humidity: 67%   Direction: 290°WNW
Pressure: 30.17"   Gusts: NA
Location:  34.21°N, 118.57°W
Report Text: KVNY 280551Z AUTO 29003KT 10SM CLR 14/08 A3017 RMK AO2 SLP213 T01440083 10206 20144 51001
Loading
Personal Weather Stations






























Interactive Weather Map New forecast layout! Learn more

10-Day Weather Forecast

Advertisements
Track Severe Weather on mobile